createdAt,value
2018-12-16T00:02:14.194Z,75.40
2018-12-16T00:07:17.334Z,75.70
2018-12-16T00:12:20.430Z,75.30
2018-12-16T00:17:23.536Z,74.90
2018-12-16T00:22:33.110Z,76.50
2018-12-16T00:27:42.663Z,75.50
2018-12-16T00:32:45.888Z,75.60
2018-12-16T00:37:49.068Z,75.50
2018-12-16T00:42:52.244Z,74.00
2018-12-16T00:47:55.404Z,73.00
2018-12-16T00:52:58.738Z,72.50
2018-12-16T00:58:01.912Z,72.60
2018-12-16T01:03:05.331Z,72.60
2018-12-16T01:08:08.529Z,73.20
2018-12-16T01:13:11.574Z,73.20
2018-12-16T01:18:14.739Z,72.60
2018-12-16T01:23:17.872Z,72.80
2018-12-16T01:28:21.043Z,73.20
2018-12-16T01:33:24.302Z,73.00
2018-12-16T01:38:27.470Z,74.10
2018-12-16T01:43:30.619Z,72.80
2018-12-16T01:48:33.697Z,73.10
2018-12-16T01:53:37.075Z,72.50
2018-12-16T01:58:40.204Z,73.20
2018-12-16T02:03:43.354Z,73.20
2018-12-16T02:08:46.522Z,74.00
2018-12-16T02:13:49.655Z,72.90
2018-12-16T02:18:52.791Z,73.00
2018-12-16T02:23:55.959Z,72.90
2018-12-16T02:28:59.099Z,72.90
2018-12-16T02:34:02.220Z,73.70
2018-12-16T02:39:06.578Z,74.10
2018-12-16T02:44:09.691Z,74.10
2018-12-16T02:49:12.851Z,74.30
2018-12-16T02:54:16.004Z,74.90
2018-12-16T02:59:19.184Z,74.70
2018-12-16T03:04:22.319Z,75.20
2018-12-16T03:09:25.438Z,76.00
2018-12-16T03:14:28.638Z,76.90
2018-12-16T03:19:31.787Z,77.20
2018-12-16T03:24:35.008Z,78.10
2018-12-16T03:29:38.153Z,77.60
2018-12-16T03:34:41.256Z,78.10
2018-12-16T03:39:44.378Z,78.20
2018-12-16T03:44:47.641Z,78.30
2018-12-16T03:49:50.974Z,78.90
2018-12-16T03:54:54.072Z,79.70
2018-12-16T03:59:57.302Z,80.20
2018-12-16T04:05:00.523Z,80.00
2018-12-16T04:10:04.245Z,79.90
2018-12-16T04:15:07.466Z,79.70
2018-12-16T04:20:10.764Z,79.60
2018-12-16T04:25:14.173Z,79.70
2018-12-16T04:30:17.429Z,80.00
2018-12-16T04:35:20.592Z,79.90
2018-12-16T04:40:23.901Z,80.40
2018-12-16T04:45:27.037Z,80.70
2018-12-16T04:50:30.260Z,81.20
2018-12-16T04:55:33.508Z,81.40
2018-12-16T05:00:36.729Z,81.60
2018-12-16T05:05:39.944Z,82.10
2018-12-16T05:10:43.149Z,81.50
2018-12-16T05:15:46.344Z,81.20
2018-12-16T05:20:49.507Z,81.20
2018-12-16T05:25:52.768Z,81.30
2018-12-16T05:30:56.016Z,80.30
2018-12-16T05:35:59.261Z,80.20
2018-12-16T05:41:02.407Z,79.60
2018-12-16T05:46:05.637Z,79.00
2018-12-16T05:51:08.927Z,78.60
2018-12-16T05:56:12.114Z,79.10
2018-12-16T06:01:15.308Z,77.90
2018-12-16T06:06:18.520Z,76.70
2018-12-16T06:11:21.814Z,74.80
2018-12-16T06:16:24.979Z,72.90
2018-12-16T06:21:28.258Z,73.40
2018-12-16T06:26:31.576Z,73.60
2018-12-16T06:31:34.789Z,73.30
2018-12-16T06:36:38.079Z,73.10
2018-12-16T06:41:41.245Z,72.30
2018-12-16T06:46:44.350Z,70.90
2018-12-16T06:51:47.560Z,70.50
2018-12-16T06:56:50.732Z,70.60
2018-12-16T07:01:53.880Z,69.90
2018-12-16T07:06:57.050Z,69.00
2018-12-16T07:12:00.150Z,68.10
2018-12-16T07:17:03.289Z,67.60
2018-12-16T07:22:06.584Z,65.90
2018-12-16T07:27:10.880Z,64.90
2018-12-16T07:32:14.365Z,65.50
2018-12-16T07:37:19.170Z,65.00
2018-12-16T07:42:22.821Z,65.80
2018-12-16T07:47:26.081Z,65.10
2018-12-16T07:52:29.311Z,65.70
2018-12-16T07:57:32.399Z,66.30
2018-12-16T08:02:35.539Z,65.80
2018-12-16T08:07:38.627Z,66.50
2018-12-16T08:12:41.816Z,66.20
2018-12-16T08:17:45.002Z,65.30
2018-12-16T08:22:48.221Z,65.20
2018-12-16T08:27:51.402Z,66.00
2018-12-16T08:32:54.651Z,67.00
2018-12-16T08:37:57.835Z,66.00
2018-12-16T08:43:01.029Z,65.20
2018-12-16T08:48:04.725Z,64.90
2018-12-16T08:53:07.923Z,63.50
2018-12-16T08:58:11.211Z,63.80
2018-12-16T09:03:14.903Z,63.80
2018-12-16T09:08:18.178Z,63.60
2018-12-16T09:13:21.387Z,66.20
2018-12-16T09:18:24.654Z,64.60
2018-12-16T09:23:28.021Z,63.90
2018-12-16T09:28:31.637Z,64.10
2018-12-16T09:33:35.020Z,63.60
2018-12-16T09:38:38.188Z,62.20
2018-12-16T09:43:41.355Z,62.10
2018-12-16T09:48:44.507Z,61.40
2018-12-16T09:53:47.775Z,61.90
2018-12-16T09:58:51.057Z,62.80
2018-12-16T10:03:54.302Z,62.80
2018-12-16T10:08:57.494Z,62.70
2018-12-16T10:14:00.709Z,63.30
2018-12-16T10:19:03.921Z,63.80
2018-12-16T10:24:07.124Z,62.60
2018-12-16T10:29:10.334Z,62.10
2018-12-16T10:34:13.440Z,61.30
2018-12-16T10:39:16.624Z,61.00
2018-12-16T10:44:19.881Z,58.00
2018-12-16T10:49:23.006Z,57.80
2018-12-16T10:54:26.111Z,57.30
2018-12-16T10:59:29.296Z,57.80
2018-12-16T11:04:32.476Z,53.40
2018-12-16T11:09:35.885Z,54.00
2018-12-16T11:14:39.036Z,55.90
2018-12-16T11:19:42.286Z,54.20
2018-12-16T11:24:45.441Z,53.00
2018-12-16T11:29:48.584Z,53.90
2018-12-16T11:34:51.828Z,55.30
2018-12-16T11:39:54.942Z,52.80
2018-12-16T11:44:58.086Z,52.70
2018-12-16T11:50:01.247Z,51.40
2018-12-16T11:55:04.488Z,54.20
2018-12-16T12:00:07.861Z,53.10
2018-12-16T12:05:11.047Z,52.30
2018-12-16T12:10:14.258Z,49.40
2018-12-16T12:15:17.440Z,55.00
2018-12-16T12:20:20.568Z,56.40
2018-12-16T12:25:23.702Z,56.70
2018-12-16T12:30:26.918Z,57.70
2018-12-16T12:35:30.073Z,54.90
2018-12-16T12:40:33.306Z,53.60
2018-12-16T12:45:37.455Z,56.00
2018-12-16T12:50:40.618Z,58.40
2018-12-16T12:55:43.783Z,59.30
2018-12-16T13:00:47.242Z,60.20
2018-12-16T13:05:50.385Z,62.30
2018-12-16T13:10:53.697Z,62.80
2018-12-16T13:15:56.952Z,63.50
2018-12-16T13:21:00.076Z,62.80
2018-12-16T13:26:04.783Z,62.40
2018-12-16T13:31:07.978Z,62.00
2018-12-16T13:36:11.318Z,63.40
2018-12-16T13:41:14.487Z,63.70
2018-12-16T13:46:17.709Z,64.00
2018-12-16T13:51:21.220Z,65.00
2018-12-16T13:56:24.532Z,64.20
2018-12-16T14:01:27.751Z,64.40
2018-12-16T14:06:31.110Z,64.60
2018-12-16T14:11:34.292Z,66.20
2018-12-16T14:16:37.576Z,66.00
2018-12-16T14:21:40.881Z,65.90
2018-12-16T14:26:44.210Z,71.20
2018-12-16T14:31:47.510Z,68.90
2018-12-16T14:36:51.162Z,68.10
2018-12-16T14:41:54.373Z,67.50
2018-12-16T14:46:57.637Z,67.70
2018-12-16T14:52:00.955Z,69.30
2018-12-16T14:57:04.390Z,68.50
2018-12-16T15:02:07.506Z,69.00
2018-12-16T15:07:10.761Z,69.20
2018-12-16T15:12:20.583Z,69.50
2018-12-16T15:17:23.761Z,68.90
2018-12-16T15:22:26.903Z,71.10
2018-12-16T15:27:30.062Z,70.90
2018-12-16T15:32:33.267Z,70.20
2018-12-16T15:37:36.388Z,69.90
2018-12-16T15:42:39.430Z,69.60
2018-12-16T15:47:42.673Z,70.70
2018-12-16T15:52:45.756Z,70.10
2018-12-16T15:57:49.042Z,70.50
2018-12-16T16:02:52.436Z,71.20
2018-12-16T16:07:55.682Z,70.70
2018-12-16T16:12:58.814Z,70.60
2018-12-16T16:18:02.208Z,70.60
2018-12-16T16:23:06.859Z,70.80
2018-12-16T16:28:10.350Z,70.50
2018-12-16T16:33:13.763Z,70.10
2018-12-16T16:38:17.029Z,70.90
2018-12-16T16:43:20.573Z,70.60
2018-12-16T16:48:23.778Z,70.80
2018-12-16T16:53:26.899Z,71.10
2018-12-16T16:58:30.131Z,72.10
2018-12-16T17:03:33.253Z,71.30
2018-12-16T17:08:36.407Z,72.30
2018-12-16T17:13:39.567Z,73.20
2018-12-16T17:18:43.146Z,73.90
2018-12-16T17:23:46.367Z,82.20
2018-12-16T17:28:49.572Z,76.80
2018-12-16T17:33:53.028Z,74.10
2018-12-16T17:38:56.216Z,73.40
2018-12-16T17:43:59.391Z,73.80
2018-12-16T17:49:02.664Z,72.30
2018-12-16T17:54:05.861Z,72.20
2018-12-16T17:59:09.066Z,70.70
2018-12-16T18:04:12.302Z,71.00
2018-12-16T18:09:15.884Z,70.60
2018-12-16T18:14:19.186Z,71.50
2018-12-16T18:19:22.340Z,72.40
2018-12-16T18:24:25.565Z,75.10
2018-12-16T18:29:28.789Z,78.00
2018-12-16T18:34:32.037Z,79.70
2018-12-16T18:39:35.467Z,82.30
2018-12-16T18:44:38.937Z,85.40
2018-12-16T18:49:42.131Z,86.20
2018-12-16T18:54:45.306Z,87.70
2018-12-16T18:59:48.678Z,87.70
2018-12-16T19:04:51.898Z,88.30
2018-12-16T19:09:55.225Z,88.30
2018-12-16T19:14:58.708Z,89.50
2018-12-16T19:20:01.841Z,90.10
2018-12-16T19:25:05.112Z,88.60
2018-12-16T19:30:09.421Z,89.60
2018-12-16T19:35:12.669Z,87.20
2018-12-16T19:40:15.835Z,88.30
2018-12-16T19:45:18.971Z,86.60
2018-12-16T19:50:22.133Z,85.60
2018-12-16T19:55:25.474Z,85.40
2018-12-16T20:00:28.637Z,84.40
2018-12-16T20:05:33.886Z,84.80
2018-12-16T20:10:36.997Z,83.80
2018-12-16T20:15:40.208Z,82.90
2018-12-16T20:20:43.328Z,83.20
2018-12-16T20:25:46.460Z,82.30
2018-12-16T20:30:49.591Z,82.90
2018-12-16T20:35:52.685Z,82.00
2018-12-16T20:40:56.957Z,82.10
2018-12-16T20:46:00.278Z,82.40
2018-12-16T20:51:03.534Z,82.10
2018-12-16T20:56:06.666Z,82.20
2018-12-16T21:01:09.820Z,81.70
2018-12-16T21:06:12.915Z,81.40
2018-12-16T21:11:21.456Z,81.10
2018-12-16T21:16:30.033Z,81.70
2018-12-16T21:21:33.190Z,81.40
2018-12-16T21:26:36.339Z,81.00
2018-12-16T21:31:39.485Z,80.70
2018-12-16T21:36:42.630Z,81.40
2018-12-16T21:41:45.839Z,80.90
2018-12-16T21:46:49.036Z,80.50
2018-12-16T21:51:52.188Z,80.80
2018-12-16T21:56:55.319Z,80.10
2018-12-16T22:01:58.517Z,80.50
2018-12-16T22:07:01.665Z,80.70
2018-12-16T22:12:04.848Z,80.70
2018-12-16T22:17:07.976Z,80.60
2018-12-16T22:22:11.104Z,80.80
2018-12-16T22:27:14.216Z,80.30
2018-12-16T22:32:17.400Z,80.50
2018-12-16T22:37:20.616Z,80.40
2018-12-16T22:42:23.774Z,80.60
2018-12-16T22:47:26.882Z,80.00
2018-12-16T22:52:30.133Z,80.30
2018-12-16T22:57:33.320Z,80.20
2018-12-16T23:02:36.419Z,80.80
2018-12-16T23:07:39.564Z,79.70
2018-12-16T23:12:42.706Z,79.90
2018-12-16T23:17:46.129Z,79.70
2018-12-16T23:22:49.802Z,79.30
2018-12-16T23:27:54.239Z,79.50
2018-12-16T23:32:59.259Z,79.30
2018-12-16T23:38:02.451Z,79.50
2018-12-16T23:43:05.620Z,79.40
2018-12-16T23:48:08.780Z,79.60
2018-12-16T23:53:11.931Z,79.70
2018-12-16T23:58:15.071Z,79.50
